• Join FlightAware (Why Join?)
  • Login
  • US Flag 
12:54PM EDT


 

Airport Tracker/Info


-or-


 

Live Flight TrackerFlight Track Log ✈ DLH805 ✈ 12-Jun-2013 ✈ ESSA / ARN - EDDF / FRA

Flight Track Log - Related Links

Times and Time Zones

All times are in EDT time to prevent confusion due to time zone crossing. See the DLH805 flight status page for this flight to view local times or setup timezone preferences in your user account.

Time Position Orientation Groundspeed Altitude Reporting Facility
EDT Latitude Longitude Course Direction KTS MPH feet Rate Location/Type
01:17PM 59.6080 17.9420 198° South 176 203 1,500  Level FlightAware
01:18PM 59.5840 17.9270 198° South 195 224 2,300 1,440 Climbing FlightAware
01:18PM 59.5770 17.9200 207° Southwest 203 234 2,400 1,380 Climbing FlightAware
01:18PM 59.5660 17.8940 230° Southwest 219 252 2,900 1,620 Climbing FlightAware
01:19PM 59.5510 17.8470 238° Southwest 243 280 3,600 2,100 Climbing FlightAware
01:19PM 59.5420 17.8160 240° Southwest 248 285 4,400 3,000 Climbing FlightAware
01:19PM 59.5280 17.7640 242° Southwest 250 288 5,700 2,640 Climbing FlightAware
01:20PM 59.5090 17.7000 240° Southwest 262 302 7,000 2,520 Climbing FlightAware
01:20PM 59.5020 17.6850 227° Southwest 267 307 7,400 2,640 Climbing FlightAware
01:20PM 59.4840 17.6650 209° Southwest 271 312 8,100 2,580 Climbing FlightAware
01:21PM 59.4480 17.6320 205° Southwest 277 319 9,500 2,100 Climbing FlightAware
01:22PM 59.4000 17.5880 205° Southwest 303 349 10,600 1,380 Climbing FlightAware
01:22PM 59.3430 17.5320 207° Southwest 342 394 11,400 1,560 Climbing FlightAware
01:23PM 59.2810 17.4690 207° Southwest 359 413 12,900 2,160 Climbing FlightAware
01:24PM 59.2300 17.3970 216° Southwest 360 414 14,500 2,280 Climbing FlightAware
01:24PM 59.1680 17.3030 218° Southwest 366 421 16,100 1,980 Climbing FlightAware
01:25PM 59.1130 17.2190 218° Southwest 380 437 17,300 1,920 Climbing FlightAware
01:26PM 59.0560 17.1310 218° Southwest 381 438 18,800 1,920 Climbing FlightAware
01:27PM 58.9950 17.0390 218° Southwest 388 447 20,100 1,920 Climbing FlightAware
01:27PM 58.9440 16.9630 218° Southwest 389 448 21,300 1,740 Climbing FlightAware
01:28PM 58.8790 16.8640 218° Southwest 397 457 22,500 1,440 Climbing FlightAware
01:29PM 58.8160 16.7710 217° Southwest 402 463 23,500 1,320 Climbing FlightAware
01:29PM 58.7570 16.6830 218° Southwest 407 468 24,400 1,140 Climbing FlightAware
01:30PM 58.6780 16.5660 218° Southwest 419 482 25,300 1,020 Climbing FlightAware
01:31PM 58.6050 16.4580 218° Southwest 430 495 26,100 1,080 Climbing FlightAware
01:32PM 58.5370 16.3590 217° Southwest 433 498 26,900 1,140 Climbing FlightAware
01:32PM 58.4730 16.2650 218° Southwest 438 504 27,700 1,080 Climbing FlightAware
01:33PM 58.4050 16.1660 217° Southwest 439 505 28,400 900 Climbing FlightAware
01:34PM 58.3450 16.0850 215° Southwest 446 513 28,900 720 Climbing FlightAware
01:34PM 58.2510 16.0000 205° Southwest 457 526 29,500 660 Climbing FlightAware
01:35PM 58.1900 15.9460 205° Southwest 457 526 30,000 1,080 Climbing FlightAware
01:36PM 58.0780 15.8510 204° Southwest 453 521 31,200 1,320 Climbing FlightAware
01:37PM 58.0020 15.7850 205° Southwest 449 517 31,900 960 Climbing FlightAware
01:37PM 57.9290 15.7240 204° Southwest 448 516 32,500 960 Climbing FlightAware
01:38PM 57.8430 15.6510 204° Southwest 445 512 33,300 1,020 Climbing FlightAware
01:39PM 57.7680 15.5880 204° Southwest 439 505 34,000 780 Climbing FlightAware
01:39PM 57.6840 15.5180 204° Southwest 439 505 34,500 660 Climbing FlightAware
01:40PM 57.6170 15.4620 204° Southwest 439 505 34,900 720 Climbing FlightAware
01:41PM 57.5320 15.3910 204° Southwest 435 501 35,500 660 Climbing FlightAware
01:42PM 57.4530 15.3260 204° Southwest 435 501 35,900 300 Climbing FlightAware
01:42PM 57.3750 15.2630 204° Southwest 435 501 36,000 60 Climbing FlightAware
01:43PM 57.3120 15.2110 204° Southwest 435 501 36,000  Level FlightAware
01:44PM 57.2300 15.1440 204° Southwest 435 501 36,000  Level FlightAware
01:44PM 57.1420 15.0730 204° Southwest 433 498 36,000  Level FlightAware
01:45PM 57.0670 15.0130 204° Southwest 432 497 36,000  Level FlightAware
01:46PM 57.0050 14.9630 204° Southwest 424 488 36,000  Level FlightAware
01:46PM 56.9230 14.8970 204° Southwest 432 497 36,000  Level FlightAware
01:47PM 56.8420 14.8330 203° Southwest 432 497 36,000  Level FlightAware
01:48PM 56.7660 14.7730 203° Southwest 433 498 36,000  Level FlightAware
01:48PM 56.6880 14.7120 203° Southwest 432 497 36,000  Level FlightAware
01:49PM 56.6180 14.6560 204° Southwest 431 496 36,000  Level FlightAware
01:50PM 56.5770 14.6250 203° Southwest 431 496 36,000  Level FlightAware
01:50PM 56.4700 14.5410 203° Southwest 430 495 36,000  Level FlightAware
01:51PM 56.3900 14.4790 203° Southwest 429 494 36,000  Level FlightAware
01:52PM 56.3220 14.4270 203° Southwest 429 494 36,000  Level FlightAware
01:53PM 56.2420 14.3650 203° Southwest 429 494 36,000  Level FlightAware
01:53PM 56.1730 14.3120 203° Southwest 429 494 36,000  Level FlightAware
01:54PM 56.0880 14.2480 203° Southwest 430 495 36,000  Level FlightAware
01:55PM 56.0140 14.1910 203° Southwest 430 495 36,000  Level FlightAware
01:55PM 55.9330 14.1300 203° Southwest 430 495 36,000  Level FlightAware
01:56PM 55.8570 14.0730 203° Southwest 430 495 36,000  Level FlightAware
01:57PM 55.7870 14.0210 203° Southwest 430 495 36,000  Level FlightAware
01:57PM 55.7040 13.9590 203° Southwest 430 495 36,000  Level FlightAware
01:58PM 55.6260 13.9010 203° Southwest 432 497 36,000  Level FlightAware
01:59PM 55.5570 13.8500 203° Southwest 434 499 36,000  Level FlightAware
02:00PM 55.4760 13.7910 202° Southwest 444 511 36,000  Level FlightAware
02:01PM 55.3380 13.6900 203° Southwest 453 521 36,000  Level FlightAware
02:01PM 55.2610 13.6310 204° Southwest 450 518 36,000 60 Level FlightAware
02:02PM 55.1860 13.5540 210° Southwest 447 514 36,100 60 Climbing FlightAware
02:03PM 55.1040 13.4670 211° Southwest 449 517 36,100  Level FlightAware
02:04PM 55.0320 13.3920 211° Southwest 449 517 36,100 -120 Level FlightAware
02:04PM 54.9600 13.3160 211° Southwest 448 516 36,000 -120 Descending FlightAware
02:05PM 54.8910 13.2450 211° Southwest 447 514 36,000  Level FlightAware
02:06PM 54.8060 13.1570 211° Southwest 447 514 36,000  Level FlightAware
02:06PM 54.7350 13.0830 211° Southwest 447 514 36,000  Level FlightAware
02:07PM 54.6690 13.0160 210° Southwest 447 514 36,000  Level FlightAware
02:08PM 54.5820 12.9270 211° Southwest 446 513 36,000  Level FlightAware
02:08PM 54.5080 12.8510 211° Southwest 444 511 36,000  Level FlightAware
02:09PM 54.4390 12.7810 211° Southwest 444 511 36,000  Level FlightAware
02:10PM 54.3640 12.7060 210° Southwest 445 512 36,000  Level FlightAware
02:10PM 54.2980 12.6380 211° Southwest 445 512 36,000  Level FlightAware
02:11PM 54.2120 12.5540 210° Southwest 445 512 36,000  Level FlightAware
02:12PM 54.1220 12.4630 211° Southwest 445 512 36,000  Level FlightAware
02:13PM 54.0600 12.4010 210° Southwest 445 512 36,000  Level FlightAware
02:13PM 53.9770 12.3200 210° Southwest 444 511 36,000  Level FlightAware
02:14PM 53.9040 12.2470 211° Southwest 443 510 36,000  Level FlightAware
02:15PM 53.8280 12.1730 210° Southwest 444 511 36,000  Level FlightAware
02:16PM 53.7610 12.1070 210° Southwest 444 511 36,000  Level FlightAware
02:16PM 53.6770 12.0260 210° Southwest 447 514 36,000  Level FlightAware
02:17PM 53.6020 11.9540 210° Southwest 447 514 36,000  Level FlightAware
02:18PM 53.5310 11.8850 210° Southwest 448 516 36,000  Level FlightAware
02:18PM 53.4480 11.8050 210° Southwest 449 517 36,000  Level FlightAware
02:19PM 53.3710 11.7310 210° Southwest 449 517 36,000  Level FlightAware
02:20PM 53.2760 11.6410 210° Southwest 450 518 36,000  Level FlightAware
02:21PM 53.2040 11.5730 210° Southwest 450 518 36,000  Level FlightAware
02:21PM 53.1200 11.4940 209° Southwest 450 518 36,000  Level FlightAware
02:22PM 53.0480 11.4260 210° Southwest 451 519 36,000  Level FlightAware
02:23PM 52.9700 11.3530 209° Southwest 451 519 36,000  Level FlightAware
02:24PM 52.8960 11.2840 209° Southwest 452 520 36,000  Level FlightAware
02:24PM 52.8210 11.2150 209° Southwest 453 521 36,000  Level FlightAware
02:25PM 52.7450 11.1440 209° Southwest 453 521 36,000  Level FlightAware
02:26PM 52.6620 11.0680 209° Southwest 455 524 36,000  Level FlightAware
02:26PM 52.5870 10.9990 209° Southwest 457 526 36,000  Level FlightAware
02:27PM 52.5090 10.9280 209° Southwest 458 527 36,000 -120 Level FlightAware
02:28PM 52.4450 10.8690 209° Southwest 460 529 35,900 -600 Descending FlightAware
02:28PM 52.3610 10.7980 207° Southwest 456 525 35,200 -1,020 Descending FlightAware
02:29PM 52.2680 10.7410 201° Southwest 461 531 34,400 -900 Descending FlightAware
02:30PM 52.2130 10.7090 200° South 34,000 -780 Descending FlightAware
02:31PM 52.0940 10.6420 199° South 460 529 33,100 -1,140 Descending FlightAware
02:31PM 51.9830 10.5800 199° South 462 532 32,200 -1,080 Descending FlightAware
02:32PM 51.9300 10.5500 199° South 457 526 31,700 -1,260 Descending FlightAware
02:33PM 51.8470 10.5040 199° South 450 518 30,600 -1,500 Descending FlightAware
02:33PM 51.7730 10.4620 199° South 440 506 29,700 -1,620 Descending FlightAware
02:34PM 51.6600 10.3990 199° South 432 497 28,200 -1,740 Descending FlightAware
02:35PM 51.5460 10.3370 199° South 423 487 26,700 -1,380 Descending FlightAware
02:36PM 51.4860 10.3030 199° South 426 490 26,100 -1,020 Descending FlightAware
02:37PM 51.4050 10.2590 199° South 420 483 25,400 -780 Descending FlightAware
02:37PM 51.3220 10.2220 196° South 425 489 25,000 -660 Descending FlightAware
02:38PM 51.2390 10.2180 182° South 426 490 24,500 -1,020 Descending FlightAware
02:39PM 51.1300 10.2150 181° South 420 483 23,300 -1,440 Descending FlightAware
02:39PM 51.0790 10.1870 199° South 398 458 22,500 -1,860 Descending FlightAware
02:40PM 51.0160 10.1230 213° Southwest 382 440 21,300 -1,800 Descending FlightAware
02:41PM 50.9510 10.0580 212° Southwest 379 436 20,000 -1,800 Descending FlightAware
02:41PM 50.8910 9.9970 213° Southwest 364 419 18,800 -1,800 Descending FlightAware
02:42PM 50.8330 9.9390 212° Southwest 363 418 17,600 -1,860 Descending FlightAware
02:43PM 50.7710 9.8760 213° Southwest 351 404 16,200 -1,920 Descending FlightAware
02:44PM 50.7160 9.8210 212° Southwest 345 397 14,900 -1,980 Descending FlightAware
02:44PM 50.6610 9.7660 212° Southwest 342 394 13,600 -1,620 Descending FlightAware
02:45PM 50.6040 9.7100 212° Southwest 344 396 12,200 -1,320 Descending FlightAware
02:46PM 50.5240 9.6310 212° Southwest 309 356 11,100 -780 Descending FlightAware
02:47PM 50.4690 9.5670 217° Southwest 289 333 11,000 -540 Descending FlightAware
02:48PM 50.3820 9.4580 219° Southwest 277 319 10,100 -720 Descending FlightAware
02:49PM 50.3550 9.4230 220° Southwest 272 313 9,700 -1,020 Descending FlightAware
02:49PM 50.3290 9.3900 219° Southwest 264 304 9,200 -1,080 Descending FlightAware
02:49PM 50.3090 9.3650 219° Southwest 249 287 8,900 -780 Descending FlightAware
02:50PM 50.2670 9.3120 219° Southwest 236 272 8,300 -840 Descending FlightAware
02:51PM 50.2420 9.2800 219° Southwest 242 278 7,800 -1,020 Descending FlightAware
02:51PM 50.2180 9.2480 220° Southwest 243 280 7,400 -660 Descending FlightAware
02:52PM 50.1950 9.2170 221° Southwest 223 257 7,200 -360 Descending FlightAware
02:52PM 50.1850 9.1950 235° Southwest 205 236 7,100 -300 Descending FlightAware
02:52PM 50.1770 9.1660 247° West 193 222 7,000 -600 Descending FlightAware
02:53PM 50.1680 9.1310 248° West 195 224 6,700 -660 Descending FlightAware
02:53PM 50.1610 9.1020 249° West 191 220 6,500 -660 Descending FlightAware
02:54PM 50.1530 9.0690 249° West 192 221 6,200 -780 Descending FlightAware
02:54PM 50.1440 9.0300 250° West 191 220 5,800 -720 Descending FlightAware
02:55PM 50.1360 8.9910 252° West 189 217 5,500 -840 Descending FlightAware
02:55PM 50.1230 8.9400 248° West 188 216 4,900 -840 Descending FlightAware
02:55PM 50.1200 8.9270 250° West 190 219 4,800 -900 Descending FlightAware
02:56PM 50.1110 8.8890 250° West 190 219 4,300 -1,140 Descending FlightAware
02:56PM 50.1020 8.8500 250° West 186 214 3,700 -1,200 Descending FlightAware
02:57PM 50.0990 8.8370 250° West 187 215 3,500 -960 Descending FlightAware
02:57PM 50.0910 8.8000 251° West 188 216 3,100 -960 Descending FlightAware
02:57PM 50.0860 8.7820 247° West 190 219 2,800 -1,080 Descending FlightAware
02:58PM 50.0780 8.7490 249° West 189 217 2,400 -1,020 Descending FlightAware
02:58PM 50.0700 8.7120 251° West 167 192 1,900 -900 Descending FlightAware
02:59PM 50.0670 8.6840 261° West 140 161 1,600 -900 Descending FlightAware
02:59PM 50.0620 8.6560 254° West 142 163 1,100 -1,020 Descending FlightAware
02:59PM 50.0580 8.6420 246° West 142 163 900 -840 Descending FlightAware
03:02PM 50.0264 8.5431 244° Southwest  Level Estimated
03:03PM 50.0264 8.5431 73° East  Level Estimated
03:04PM 50.0264 8.5431 73° East  Level Estimated
03:05PM 50.0264 8.5431 73° East  Level Estimated
03:06PM 50.0264 8.5431 73° East  Level Estimated
03:07PM 50.0264 8.5431 73° East  Level Estimated